createdAt,value
2023-05-22T00:00:04.922Z,16.1
2023-05-22T00:01:05.042Z,16
2023-05-22T00:02:04.991Z,16
2023-05-22T00:03:04.925Z,16
2023-05-22T00:04:04.898Z,16
2023-05-22T00:05:06.459Z,16
2023-05-22T00:06:06.265Z,16
2023-05-22T00:07:06.270Z,16
2023-05-22T00:08:06.878Z,15.9
2023-05-22T00:09:05.945Z,15.9
2023-05-22T00:10:06.215Z,15.9
2023-05-22T00:11:06.001Z,15.9
2023-05-22T00:12:06.663Z,15.9
2023-05-22T00:13:05.659Z,15.9
2023-05-22T00:14:05.757Z,15.8
2023-05-22T00:15:06.279Z,15.8
2023-05-22T00:16:06.258Z,15.8
2023-05-22T00:17:06.635Z,15.8
2023-05-22T00:18:05.970Z,15.8
2023-05-22T00:19:05.925Z,15.7
2023-05-22T00:20:05.123Z,15.7
2023-05-22T00:21:04.906Z,15.7
2023-05-22T00:22:04.997Z,15.7
2023-05-22T00:23:06.213Z,15.6
2023-05-22T00:24:04.712Z,15.6
2023-05-22T00:25:06.062Z,15.6
2023-05-22T00:26:06.730Z,15.6
2023-05-22T00:27:05.897Z,15.6
2023-05-22T00:28:05.966Z,14
2023-05-22T00:29:06.465Z,15.6
2023-05-22T00:30:05.717Z,15.5
2023-05-22T00:31:06.234Z,15.5
2023-05-22T00:32:06.608Z,15.5
2023-05-22T00:33:05.749Z,15.4
2023-05-22T00:34:06.300Z,15.4
2023-05-22T00:35:06.416Z,15.4
2023-05-22T00:36:06.495Z,15.4
2023-05-22T00:37:06.040Z,15.4
2023-05-22T00:38:06.297Z,15.3
2023-05-22T00:39:06.512Z,15.4
2023-05-22T00:40:05.753Z,15.3
2023-05-22T00:41:05.834Z,15.3
2023-05-22T00:42:06.451Z,15.3
2023-05-22T00:43:04.932Z,15.3
2023-05-22T00:44:05.076Z,15.3
2023-05-22T00:45:04.886Z,15.3
2023-05-22T00:46:06.248Z,15.3
2023-05-22T00:47:06.838Z,15.3
2023-05-22T00:48:05.586Z,15.3
2023-05-22T00:49:05.959Z,15.3
2023-05-22T00:50:06.354Z,15.3
2023-05-22T00:51:06.712Z,15.3
2023-05-22T00:52:05.926Z,15.2
2023-05-22T00:53:06.156Z,14
2023-05-22T00:54:06.401Z,15.2
2023-05-22T00:55:06.786Z,15.2
2023-05-22T00:56:05.623Z,15.2
2023-05-22T00:57:06.084Z,14
2023-05-22T00:58:06.397Z,15.2
2023-05-22T00:59:05.522Z,15.2
2023-05-22T01:00:06.127Z,15.2
2023-05-22T01:01:05.957Z,15.2
2023-05-22T01:02:06.339Z,15.2
2023-05-22T01:03:06.457Z,15.2
2023-05-22T01:04:05.864Z,15.1
2023-05-22T01:05:05.993Z,15.1
2023-05-22T01:06:05.013Z,15.1
2023-05-22T01:07:04.963Z,15.1
2023-05-22T01:08:04.717Z,15.1
2023-05-22T01:09:04.879Z,15.1
2023-05-22T01:10:05.196Z,15.1
2023-05-22T01:11:05.972Z,15
2023-05-22T01:12:06.225Z,15
2023-05-22T01:13:06.496Z,15
2023-05-22T01:14:05.923Z,15
2023-05-22T01:15:06.094Z,15
2023-05-22T01:16:05.906Z,15
2023-05-22T01:17:05.837Z,14.9
2023-05-22T01:18:06.149Z,14.9
2023-05-22T01:19:06.556Z,14.9
2023-05-22T01:20:05.613Z,14.9
2023-05-22T01:21:06.062Z,14.8
2023-05-22T01:22:06.440Z,14.8
2023-05-22T01:23:06.654Z,14.9
2023-05-22T01:24:05.805Z,14
2023-05-22T01:25:04.941Z,14.8
2023-05-22T01:26:05.032Z,14.8
2023-05-22T01:27:06.211Z,14.8
2023-05-22T01:28:05.022Z,14.8
2023-05-22T01:29:06.191Z,13
2023-05-22T01:30:05.620Z,14.7
2023-05-22T01:31:06.262Z,14.7
2023-05-22T01:32:06.437Z,14.7
2023-05-22T01:33:05.901Z,14.7
2023-05-22T01:34:06.477Z,14.6
2023-05-22T01:35:06.641Z,14.6
2023-05-22T01:36:06.244Z,14.6
2023-05-22T01:37:06.569Z,14.6
2023-05-22T01:38:05.870Z,14.5
2023-05-22T01:39:06.222Z,14.5
2023-05-22T01:40:06.561Z,14.5
2023-05-22T01:41:06.186Z,14.4
2023-05-22T01:42:06.075Z,14.4
2023-05-22T01:43:06.365Z,14.4
2023-05-22T01:44:05.576Z,14.4
2023-05-22T01:45:05.893Z,14.4
2023-05-22T01:46:06.215Z,14.3
2023-05-22T01:47:06.623Z,14.3
2023-05-22T01:48:05.527Z,14.3
2023-05-22T01:49:06.122Z,14.3
2023-05-22T01:50:06.126Z,14.3
2023-05-22T01:51:05.645Z,14.2
2023-05-22T01:52:05.804Z,14.2
2023-05-22T01:53:05.982Z,14.2
2023-05-22T01:54:06.397Z,13
2023-05-22T01:55:05.979Z,13
2023-05-22T01:56:06.280Z,14.2
2023-05-22T01:57:06.408Z,14.2
2023-05-22T01:58:05.968Z,14.2
2023-05-22T01:59:05.901Z,14.2
2023-05-22T02:00:06.091Z,14.1
2023-05-22T02:01:06.541Z,14.1
2023-05-22T02:02:05.854Z,14.2
2023-05-22T02:03:06.128Z,14.1
2023-05-22T02:04:06.503Z,14.2
2023-05-22T02:05:05.916Z,14.1
2023-05-22T02:07:06.231Z,14.2
2023-05-22T02:08:06.310Z,14.2
2023-05-22T02:09:05.689Z,14.2
2023-05-22T02:10:06.075Z,14.1
2023-05-22T02:11:06.335Z,14.2
2023-05-22T02:12:06.496Z,14.1
2023-05-22T02:13:05.849Z,14.1
2023-05-22T02:14:06.115Z,14.1
2023-05-22T02:15:06.349Z,14.1
2023-05-22T02:16:06.608Z,14.1
2023-05-22T02:17:05.582Z,14.1
2023-05-22T02:18:05.859Z,14.1
2023-05-22T02:19:06.114Z,14.1
2023-05-22T02:20:05.486Z,14
2023-05-22T02:21:06.513Z,14
2023-05-22T02:22:05.843Z,13
2023-05-22T02:23:06.081Z,13
2023-05-22T02:24:06.536Z,14
2023-05-22T02:25:06.552Z,14
2023-05-22T02:26:06.604Z,14
2023-05-22T02:27:05.860Z,14
2023-05-22T02:28:05.925Z,14
2023-05-22T02:29:06.554Z,13
2023-05-22T02:30:05.760Z,13
2023-05-22T02:31:05.746Z,14
2023-05-22T02:32:06.126Z,14
2023-05-22T02:33:06.525Z,14
2023-05-22T02:34:05.675Z,13.9
2023-05-22T02:35:06.074Z,13.9
2023-05-22T02:36:05.993Z,13.9
2023-05-22T02:37:06.382Z,13.9
2023-05-22T02:38:05.963Z,13.9
2023-05-22T02:39:06.164Z,13.9
2023-05-22T02:40:06.656Z,13.8
2023-05-22T02:41:05.143Z,13.8
2023-05-22T02:42:06.386Z,13.8
2023-05-22T02:43:06.613Z,13.8
2023-05-22T02:44:05.045Z,13.8
2023-05-22T02:45:06.059Z,13.8
2023-05-22T02:46:06.396Z,13.8
2023-05-22T02:47:06.389Z,13.8
2023-05-22T02:48:05.850Z,13.7
2023-05-22T02:49:06.012Z,13.7
2023-05-22T02:50:05.977Z,13.6
2023-05-22T02:51:06.353Z,13.6
2023-05-22T02:52:05.840Z,12
2023-05-22T02:53:05.843Z,13.6
2023-05-22T02:54:06.094Z,13.6
2023-05-22T02:55:05.781Z,13.5
2023-05-22T02:56:06.024Z,13.5
2023-05-22T02:57:06.376Z,13.5
2023-05-22T02:58:06.762Z,12
2023-05-22T02:59:06.023Z,12
2023-05-22T03:00:06.466Z,13.5
2023-05-22T03:01:05.692Z,13.5
2023-05-22T03:02:06.114Z,13.5
2023-05-22T03:03:06.258Z,13.5
2023-05-22T03:04:06.867Z,13.5
2023-05-22T03:05:06.408Z,13.5
2023-05-22T03:07:05.624Z,13.5
2023-05-22T03:08:05.982Z,13.4
2023-05-22T03:09:06.147Z,13.4
2023-05-22T03:10:06.569Z,13.4
2023-05-22T03:11:05.620Z,13.4
2023-05-22T03:12:05.880Z,13.4
2023-05-22T03:13:06.402Z,13.4
2023-05-22T03:14:06.392Z,13.4
2023-05-22T03:15:05.669Z,13.4
2023-05-22T03:16:06.004Z,13.4
2023-05-22T03:17:06.595Z,13.4
2023-05-22T03:18:05.735Z,13.3
2023-05-22T03:19:05.790Z,13.3
2023-05-22T03:20:06.031Z,13.3
2023-05-22T03:21:06.454Z,13.3
2023-05-22T03:22:06.653Z,13.3
2023-05-22T03:23:06.020Z,13.3
2023-05-22T03:24:05.978Z,13.3
2023-05-22T03:25:06.429Z,13.2
2023-05-22T03:26:06.018Z,13.3
2023-05-22T03:27:06.312Z,13.2
2023-05-22T03:28:06.607Z,13.2
2023-05-22T03:29:05.629Z,13.2
2023-05-22T03:30:06.092Z,13.2
2023-05-22T03:31:06.280Z,13.2
2023-05-22T03:32:05.993Z,13.2
2023-05-22T03:33:06.229Z,13.2
2023-05-22T03:34:05.756Z,13.2
2023-05-22T03:35:06.153Z,12
2023-05-22T03:36:06.355Z,13.2
2023-05-22T03:37:06.341Z,13.2
2023-05-22T03:38:05.808Z,13.2
2023-05-22T03:39:06.221Z,13.2
2023-05-22T03:40:06.503Z,13.2
2023-05-22T03:41:06.119Z,13.2
2023-05-22T03:42:06.175Z,13.2
2023-05-22T03:43:06.431Z,13.2
2023-05-22T03:44:06.747Z,13.2
2023-05-22T03:45:05.979Z,13.2
2023-05-22T03:46:05.608Z,13.2
2023-05-22T03:47:06.041Z,13.2
2023-05-22T03:48:06.024Z,13.2
2023-05-22T03:49:06.690Z,13.2
2023-05-22T03:50:05.872Z,13.1
2023-05-22T03:51:05.649Z,13.1
2023-05-22T03:52:05.922Z,13.1
2023-05-22T03:53:06.266Z,12
2023-05-22T03:54:06.449Z,13.1
2023-05-22T03:55:06.511Z,13.1
2023-05-22T03:56:05.975Z,13.1
2023-05-22T03:57:06.292Z,13.1
2023-05-22T03:58:06.581Z,13.2
2023-05-22T03:59:05.774Z,13.2
2023-05-22T04:00:06.413Z,13.1
2023-05-22T04:01:06.409Z,13.1
2023-05-22T04:02:05.990Z,13.1
2023-05-22T04:03:05.900Z,13.2
2023-05-22T04:04:06.352Z,13.2
2023-05-22T04:05:06.573Z,13.2
2023-05-22T04:07:06.126Z,13.2
2023-05-22T04:08:06.350Z,13.2
2023-05-22T04:09:05.711Z,13.2
2023-05-22T04:10:06.048Z,13.2
2023-05-22T04:11:06.175Z,13.2
2023-05-22T04:12:06.367Z,13.2
2023-05-22T04:13:05.686Z,13.3
2023-05-22T04:14:05.967Z,13.3
2023-05-22T04:15:06.361Z,13.3
2023-05-22T04:16:06.159Z,13.3
2023-05-22T04:17:06.096Z,12
2023-05-22T04:18:05.955Z,12
2023-05-22T04:19:06.361Z,13.3
2023-05-22T04:20:05.727Z,13.3
2023-05-22T04:21:05.634Z,13.3
2023-05-22T04:22:06.073Z,13.4
2023-05-22T04:23:06.322Z,13.4
2023-05-22T04:24:05.715Z,13.4
2023-05-22T04:25:05.910Z,13.4
2023-05-22T04:26:05.617Z,13.4
2023-05-22T04:27:05.972Z,13.4
2023-05-22T04:28:06.134Z,13.4
2023-05-22T04:29:06.402Z,13.4
2023-05-22T04:30:05.915Z,13.5
2023-05-22T04:31:06.127Z,13.5
2023-05-22T04:32:06.348Z,13.5
2023-05-22T04:33:06.813Z,13.5
2023-05-22T04:34:05.773Z,13.5
2023-05-22T04:35:06.278Z,13.6
2023-05-22T04:36:06.747Z,13.6
2023-05-22T04:37:05.971Z,13.6
2023-05-22T04:38:06.197Z,13.6
2023-05-22T04:39:06.571Z,13
2023-05-22T04:40:06.076Z,13.6
2023-05-22T04:41:06.229Z,13.6
2023-05-22T04:42:06.590Z,13.7
2023-05-22T04:43:05.943Z,13.8
2023-05-22T04:44:06.136Z,13.8
2023-05-22T04:45:06.625Z,13.8
2023-05-22T04:46:05.861Z,13.9
2023-05-22T04:47:07.876Z,13.9
2023-05-22T04:48:06.555Z,13.9
2023-05-22T04:49:06.570Z,14
2023-05-22T04:50:06.108Z,14
2023-05-22T04:51:06.060Z,14
2023-05-22T04:52:06.255Z,14.1
2023-05-22T04:53:06.770Z,14.2
2023-05-22T04:54:06.011Z,14.2
2023-05-22T04:55:06.321Z,14.3
2023-05-22T04:56:06.512Z,14.2
2023-05-22T04:57:06.289Z,14.3
2023-05-22T04:58:06.514Z,14.3
2023-05-22T04:59:05.855Z,14.4
2023-05-22T05:00:06.058Z,14.5
2023-05-22T05:01:06.430Z,14.5
2023-05-22T05:02:05.879Z,14.6
2023-05-22T05:03:06.035Z,14.6
2023-05-22T05:04:06.477Z,14.6
2023-05-22T05:05:06.159Z,14.6
2023-05-22T05:06:06.465Z,14
2023-05-22T05:07:05.885Z,14.8
2023-05-22T05:08:06.272Z,14.8
2023-05-22T05:09:06.546Z,14.8
2023-05-22T05:10:05.557Z,15
2023-05-22T05:11:05.770Z,15
2023-05-22T05:12:06.494Z,15.1
2023-05-22T05:13:05.581Z,15.1
2023-05-22T05:14:05.952Z,15.1
2023-05-22T05:15:06.415Z,15.2
2023-05-22T05:16:05.770Z,15.4
2023-05-22T05:17:05.900Z,15.4
2023-05-22T05:18:06.094Z,15.4
2023-05-22T05:19:06.392Z,15.5
2023-05-22T05:20:06.755Z,15.6
2023-05-22T05:21:05.611Z,15.6
2023-05-22T05:22:05.914Z,15.7
2023-05-22T05:23:06.078Z,15.7
2023-05-22T05:24:06.532Z,15.8
2023-05-22T05:25:06.004Z,16
2023-05-22T05:26:05.857Z,16
2023-05-22T05:27:06.210Z,16
2023-05-22T05:28:06.756Z,16.2
2023-05-22T05:29:06.018Z,16.2
2023-05-22T05:30:05.515Z,16.2
2023-05-22T05:31:05.606Z,16.4
2023-05-22T05:32:05.746Z,16.4
2023-05-22T05:33:05.976Z,16.4
2023-05-22T05:34:05.319Z,16.5
2023-05-22T05:35:06.410Z,16.6
2023-05-22T05:36:06.120Z,16.6
2023-05-22T05:37:06.219Z,16.7
2023-05-22T05:38:06.296Z,16.7
2023-05-22T05:39:05.366Z,16.8
2023-05-22T05:40:06.069Z,17.1
2023-05-22T05:41:06.072Z,17.3
2023-05-22T05:42:06.031Z,17.9
2023-05-22T05:43:07.319Z,18.6
2023-05-22T05:44:06.475Z,19.2
2023-05-22T05:45:06.329Z,19.2
2023-05-22T05:46:06.145Z,20
2023-05-22T05:47:06.113Z,20.5
2023-05-22T05:48:06.195Z,21.1
2023-05-22T05:49:06.411Z,21.5
2023-05-22T05:50:06.323Z,21.5
2023-05-22T05:51:05.987Z,22.4
2023-05-22T05:52:05.801Z,22.8
2023-05-22T05:53:05.920Z,23
2023-05-22T05:54:05.955Z,23.2
2023-05-22T05:55:05.798Z,23.5
2023-05-22T05:56:05.890Z,23.7
2023-05-22T05:57:05.836Z,23.9
2023-05-22T05:58:05.817Z,24.2
2023-05-22T05:59:05.871Z,24.4
2023-05-22T06:00:06.356Z,24.6
2023-05-22T06:01:05.652Z,25
2023-05-22T06:02:05.746Z,25.4
2023-05-22T06:03:05.759Z,25.6
2023-05-22T06:04:05.507Z,19
2023-05-22T06:05:06.650Z,25.8
2023-05-22T06:06:06.525Z,25.8
2023-05-22T06:07:06.383Z,26.1
2023-05-22T06:08:06.783Z,26.3
2023-05-22T06:09:05.615Z,26.3
2023-05-22T06:10:06.285Z,26.3
2023-05-22T06:11:06.290Z,26
2023-05-22T06:12:06.427Z,25.7
2023-05-22T06:13:05.834Z,25.5
2023-05-22T06:14:06.153Z,25.5
2023-05-22T06:15:06.379Z,25.2
2023-05-22T06:16:06.817Z,25
2023-05-22T06:17:06.465Z,24.7
2023-05-22T06:18:06.692Z,24.4
2023-05-22T06:19:05.806Z,24.2
2023-05-22T06:20:05.969Z,24.1
2023-05-22T06:21:06.163Z,24
2023-05-22T06:22:06.536Z,23.8
2023-05-22T06:23:05.837Z,23.4
2023-05-22T06:24:05.728Z,23.4
2023-05-22T06:25:06.323Z,23.4
2023-05-22T06:26:05.899Z,23.5
2023-05-22T06:27:05.887Z,23.4
2023-05-22T06:28:05.435Z,23.6
2023-05-22T06:29:05.677Z,23.8
2023-05-22T06:30:05.440Z,24.2
2023-05-22T06:31:05.479Z,25
2023-05-22T06:32:05.402Z,25.4
2023-05-22T06:33:06.537Z,26
2023-05-22T06:34:06.706Z,26.8
2023-05-22T06:35:06.204Z,26.8
2023-05-22T06:36:06.498Z,27.3
2023-05-22T06:37:05.646Z,27.3
2023-05-22T06:38:06.055Z,27.5
2023-05-22T06:39:06.321Z,27.6
2023-05-22T06:40:06.455Z,28.2
2023-05-22T06:41:05.852Z,28.4
2023-05-22T06:42:06.076Z,28.8
2023-05-22T06:43:06.597Z,29.1
2023-05-22T06:44:05.646Z,29.3
2023-05-22T06:45:05.984Z,29.7
2023-05-22T06:46:06.027Z,30
2023-05-22T06:47:06.142Z,30.4
2023-05-22T06:48:05.636Z,30.4
2023-05-22T06:49:06.140Z,30.5
2023-05-22T06:50:06.343Z,30.8
2023-05-22T06:51:05.395Z,31.1
2023-05-22T06:52:05.961Z,31.4
2023-05-22T06:53:06.081Z,31.5
2023-05-22T06:54:05.621Z,31.5
2023-05-22T06:55:05.667Z,31.8
2023-05-22T06:56:05.219Z,31.9
2023-05-22T06:57:05.633Z,32.1
2023-05-22T06:58:05.510Z,32.1
2023-05-22T06:59:06.594Z,32.3
2023-05-22T07:00:06.294Z,32.4
2023-05-22T07:01:06.221Z,32.4
2023-05-22T07:02:06.484Z,32.4
2023-05-22T07:03:06.672Z,32.3
2023-05-22T07:04:05.803Z,32
2023-05-22T07:05:06.160Z,31.4
2023-05-22T07:06:06.492Z,31.1
2023-05-22T07:07:05.822Z,30.3
2023-05-22T07:08:06.145Z,29.6
2023-05-22T07:09:06.356Z,29
2023-05-22T07:10:05.793Z,28.8
2023-05-22T07:11:06.835Z,28.5
2023-05-22T07:12:06.064Z,28.1
2023-05-22T07:13:06.377Z,27.9
2023-05-22T07:14:06.655Z,27.5
2023-05-22T07:15:06.030Z,27.2
2023-05-22T07:16:06.224Z,27.1
2023-05-22T07:17:06.343Z,27.1
2023-05-22T07:18:05.731Z,26.8
2023-05-22T07:19:05.675Z,26.7
2023-05-22T07:20:05.301Z,26.6
2023-05-22T07:21:06.722Z,26.6
2023-05-22T07:22:05.546Z,26.6
2023-05-22T07:23:05.512Z,26.6
2023-05-22T07:24:05.557Z,26.6
2023-05-22T07:25:05.799Z,26.6
2023-05-22T07:26:06.614Z,26.6
2023-05-22T07:27:05.825Z,26.6
2023-05-22T07:28:06.174Z,26.6
2023-05-22T07:29:06.438Z,26.6
2023-05-22T07:30:06.750Z,26.6
2023-05-22T07:31:06.147Z,26.6
2023-05-22T07:32:06.271Z,26.5
2023-05-22T07:33:06.563Z,26.5
2023-05-22T07:34:05.614Z,26.4
2023-05-22T07:35:05.898Z,26.4
2023-05-22T07:36:06.236Z,26.4
2023-05-22T07:37:06.074Z,26.3
2023-05-22T07:38:05.661Z,26.4
2023-05-22T07:39:06.104Z,26.3
2023-05-22T07:40:06.357Z,26.3
2023-05-22T07:41:06.200Z,26.2
2023-05-22T07:42:06.344Z,23
2023-05-22T07:43:06.492Z,23
2023-05-22T07:44:05.989Z,25.9
2023-05-22T07:45:06.063Z,25.9
2023-05-22T07:46:06.580Z,25.8
2023-05-22T07:47:06.349Z,25.8
2023-05-22T07:48:05.606Z,25.6
2023-05-22T07:49:05.302Z,25.6
2023-05-22T07:50:05.369Z,25.6
2023-05-22T07:51:05.137Z,25.6
2023-05-22T07:52:05.159Z,25.5
2023-05-22T07:53:05.516Z,25.4
2023-05-22T07:54:05.579Z,25.4
2023-05-22T07:55:06.397Z,25.3
2023-05-22T07:56:06.690Z,25.2
2023-05-22T07:57:05.929Z,25.2
2023-05-22T07:58:06.091Z,25.3
2023-05-22T07:59:06.382Z,25.3
2023-05-22T08:00:05.735Z,25.3
2023-05-22T08:01:08.064Z,25.4
2023-05-22T08:02:06.357Z,25.4
2023-05-22T08:03:06.651Z,23
2023-05-22T08:04:05.943Z,25.4
2023-05-22T08:05:06.030Z,25.3
2023-05-22T08:06:06.563Z,25.2
2023-05-22T08:07:06.608Z,25.2
2023-05-22T08:08:05.804Z,25.1
2023-05-22T08:09:06.257Z,25
2023-05-22T08:10:06.546Z,25
2023-05-22T08:11:06.617Z,25
2023-05-22T08:12:05.592Z,25
2023-05-22T08:13:05.784Z,25.1
2023-05-22T08:14:06.231Z,25.1
2023-05-22T08:15:05.392Z,25.1
2023-05-22T08:16:06.048Z,25.2
2023-05-22T08:17:06.524Z,25.2
2023-05-22T08:18:06.396Z,25.2
2023-05-22T08:19:05.990Z,25.2
2023-05-22T08:20:06.502Z,25.2
2023-05-22T08:21:05.946Z,25.2
2023-05-22T08:22:06.285Z,25.2
2023-05-22T08:23:06.241Z,25.3
2023-05-22T08:24:05.761Z,25.3
2023-05-22T08:25:06.048Z,25.4
2023-05-22T08:26:06.038Z,25.4
2023-05-22T08:27:06.514Z,25.4
2023-05-22T08:28:06.823Z,25.4
2023-05-22T08:29:05.685Z,25.5
2023-05-22T08:30:05.729Z,25.6
2023-05-22T08:31:05.531Z,25.6
2023-05-22T08:32:06.429Z,25.8
2023-05-22T08:33:05.631Z,25.8
2023-05-22T08:34:05.509Z,25.8
2023-05-22T08:35:06.599Z,25.8
2023-05-22T08:36:05.542Z,25.8
2023-05-22T08:37:06.505Z,25.6
2023-05-22T08:38:06.788Z,25.6
2023-05-22T08:39:06.510Z,25.6
2023-05-22T08:40:06.172Z,25.5
2023-05-22T08:41:06.651Z,25.4
2023-05-22T08:42:06.419Z,25.4
2023-05-22T08:43:05.961Z,25.2
2023-05-22T08:44:05.498Z,25.2
2023-05-22T08:45:05.962Z,25.3
2023-05-22T08:46:06.119Z,25.4
2023-05-22T08:47:05.931Z,25.3
2023-05-22T08:48:05.807Z,25.4
2023-05-22T08:49:06.352Z,25.3
2023-05-22T08:50:06.332Z,25.3
2023-05-22T08:51:05.284Z,25.3
2023-05-22T08:52:05.865Z,25.3
2023-05-22T08:53:06.143Z,25.3
2023-05-22T08:54:06.271Z,25.2
2023-05-22T08:55:05.899Z,25.2
2023-05-22T08:56:06.425Z,25.2
2023-05-22T08:57:06.473Z,25.2
2023-05-22T08:58:05.636Z,25.2
2023-05-22T08:59:06.133Z,25.2
2023-05-22T09:00:05.650Z,25.2
2023-05-22T09:01:05.983Z,25.2
2023-05-22T09:02:06.748Z,25.2
2023-05-22T09:03:05.568Z,25
2023-05-22T09:04:06.266Z,25
2023-05-22T09:05:05.773Z,24.9
2023-05-22T09:06:06.637Z,25
2023-05-22T09:07:06.614Z,24.8
2023-05-22T09:08:16.562Z,24.9
2023-05-22T09:09:06.580Z,24.9
2023-05-22T09:10:06.636Z,24.9
2023-05-22T09:11:05.820Z,25
2023-05-22T09:12:05.871Z,24.9
2023-05-22T09:13:06.761Z,24.9
2023-05-22T09:14:06.488Z,25.1
2023-05-22T09:15:05.595Z,25.2
2023-05-22T09:16:05.500Z,25.2
2023-05-22T09:17:06.491Z,25.2
2023-05-22T09:18:06.232Z,25.3
2023-05-22T09:19:06.533Z,25.3
2023-05-22T09:20:05.854Z,25.2
2023-05-22T09:21:09.029Z,25.2
2023-05-22T09:22:06.723Z,25.2
2023-05-22T09:23:06.471Z,25.2
2023-05-22T09:24:06.379Z,25.2
2023-05-22T09:25:06.532Z,25.3
2023-05-22T09:26:06.422Z,25.3
2023-05-22T09:27:06.199Z,25.3
2023-05-22T09:28:06.270Z,25.3
2023-05-22T09:29:06.637Z,25.4
2023-05-22T09:30:05.719Z,25.5
2023-05-22T09:31:06.694Z,25.5
2023-05-22T09:32:06.633Z,25.6
2023-05-22T09:33:06.319Z,25.6
2023-05-22T09:34:06.510Z,25.7
2023-05-22T09:35:06.315Z,26
2023-05-22T09:36:06.443Z,25.9
2023-05-22T09:37:06.282Z,25.9
2023-05-22T09:38:06.165Z,26
2023-05-22T09:39:06.288Z,26
2023-05-22T09:40:06.652Z,26
2023-05-22T09:41:06.512Z,26
2023-05-22T09:42:06.334Z,25.9
2023-05-22T09:43:06.034Z,27
2023-05-22T09:44:06.217Z,26
2023-05-22T09:45:06.483Z,25.9
2023-05-22T09:46:06.328Z,25.9
2023-05-22T09:47:06.499Z,25.9
2023-05-22T09:48:06.187Z,25.9
2023-05-22T09:49:05.998Z,25.9
2023-05-22T09:50:06.360Z,25.8
2023-05-22T09:51:06.292Z,25.9
2023-05-22T09:52:06.197Z,25.9
2023-05-22T09:53:06.363Z,25.9
2023-05-22T09:54:06.102Z,25.9
2023-05-22T09:55:06.020Z,25.8
2023-05-22T09:56:06.239Z,25.8
2023-05-22T09:57:06.029Z,25.7
2023-05-22T09:58:06.021Z,25.6
2023-05-22T09:59:05.933Z,25.6
2023-05-22T10:00:05.974Z,25.6
2023-05-22T10:01:05.969Z,25.6
2023-05-22T10:02:06.138Z,25.7
2023-05-22T10:03:06.065Z,25.7
2023-05-22T10:04:06.173Z,25.8
2023-05-22T10:05:06.173Z,25.8
2023-05-22T10:06:05.790Z,25
2023-05-22T10:07:05.875Z,26
2023-05-22T10:08:05.734Z,26
2023-05-22T10:09:05.837Z,26
2023-05-22T10:10:06.013Z,26
2023-05-22T10:11:05.827Z,26
2023-05-22T10:12:06.028Z,26
2023-05-22T10:13:05.950Z,26
2023-05-22T10:14:05.898Z,26
2023-05-22T10:15:06.027Z,26
2023-05-22T10:16:05.784Z,26
2023-05-22T10:17:06.058Z,25.9
2023-05-22T10:18:06.132Z,26
2023-05-22T10:19:05.722Z,26
2023-05-22T10:20:05.983Z,26
2023-05-22T10:21:05.891Z,26
2023-05-22T10:22:05.903Z,26
2023-05-22T10:23:05.594Z,26
2023-05-22T10:24:06.056Z,26
2023-05-22T10:25:06.341Z,26
2023-05-22T10:26:05.898Z,25.9
2023-05-22T10:27:05.902Z,25.8
2023-05-22T10:28:05.651Z,25.8
2023-05-22T10:29:05.643Z,25.8
2023-05-22T10:30:05.728Z,25.8
2023-05-22T10:31:05.685Z,26
2023-05-22T10:32:06.756Z,26
2023-05-22T10:33:05.726Z,26.1
2023-05-22T10:34:05.890Z,26.2
2023-05-22T10:35:06.728Z,26.2
2023-05-22T10:36:05.805Z,26.4
2023-05-22T10:37:16.386Z,26.4
2023-05-22T10:38:05.728Z,26.4
2023-05-22T10:39:05.517Z,26.3
2023-05-22T10:40:06.609Z,26.4
2023-05-22T10:41:05.621Z,26.4
2023-05-22T10:42:06.681Z,26.4
2023-05-22T10:43:05.611Z,26.5
2023-05-22T10:44:06.676Z,26.6
2023-05-22T10:45:06.665Z,26.7
2023-05-22T10:46:06.557Z,26.7
2023-05-22T10:47:06.551Z,26.8
2023-05-22T10:48:05.659Z,26.9
2023-05-22T10:49:06.339Z,27
2023-05-22T10:50:06.512Z,27.1
2023-05-22T10:51:06.572Z,27.1
2023-05-22T10:52:06.650Z,27.2
2023-05-22T10:53:06.598Z,27.3
2023-05-22T10:54:06.664Z,27.2
2023-05-22T10:55:06.668Z,27.3
2023-05-22T10:56:06.393Z,27.2
2023-05-22T10:57:06.183Z,27.2
2023-05-22T10:58:06.666Z,27.3
2023-05-22T10:59:06.585Z,27.4
2023-05-22T11:00:06.485Z,27.4
2023-05-22T11:01:06.492Z,27.4
2023-05-22T11:02:06.539Z,27.4
2023-05-22T11:03:16.976Z,27.4
2023-05-22T11:04:06.459Z,28
2023-05-22T11:05:06.842Z,27.4
2023-05-22T11:06:06.334Z,27.5
2023-05-22T11:07:06.205Z,27.5
2023-05-22T11:08:06.533Z,27.4
2023-05-22T11:09:06.400Z,27.5
2023-05-22T11:10:06.214Z,27.6
2023-05-22T11:11:06.494Z,27.6
2023-05-22T11:12:06.359Z,27.6
2023-05-22T11:13:06.309Z,27.6
2023-05-22T11:14:06.581Z,27.5
2023-05-22T11:15:06.741Z,27.6
2023-05-22T11:16:06.538Z,29
2023-05-22T11:17:06.498Z,27.6
2023-05-22T11:18:06.298Z,29
2023-05-22T11:19:21.618Z,27.7
2023-05-22T11:20:06.545Z,27.7
2023-05-22T11:21:06.364Z,27.8
2023-05-22T11:22:06.019Z,27.8
2023-05-22T11:23:06.364Z,27.8
2023-05-22T11:24:06.058Z,27.9
2023-05-22T11:25:06.218Z,27.8
2023-05-22T11:26:06.296Z,27.9
2023-05-22T11:27:06.288Z,27.9
2023-05-22T11:28:06.234Z,27.8
2023-05-22T11:29:06.138Z,27.8
2023-05-22T11:30:06.098Z,27.7
2023-05-22T11:31:06.202Z,27.7
2023-05-22T11:32:06.215Z,27.8
2023-05-22T11:33:06.433Z,27.8
2023-05-22T11:34:06.083Z,27.8
2023-05-22T11:35:05.964Z,27.8
2023-05-22T11:36:06.100Z,27.9
2023-05-22T11:37:05.942Z,28
2023-05-22T11:38:06.141Z,27.9
2023-05-22T11:39:06.058Z,28
2023-05-22T11:40:05.976Z,27.9
2023-05-22T11:41:06.328Z,28
2023-05-22T11:42:05.952Z,28
2023-05-22T11:43:06.207Z,28
2023-05-22T11:44:06.062Z,27.9
2023-05-22T11:45:06.060Z,28
2023-05-22T11:46:06.018Z,29
2023-05-22T11:47:06.019Z,28
2023-05-22T11:48:05.902Z,28
2023-05-22T11:49:06.011Z,28.1
2023-05-22T11:50:05.953Z,28
2023-05-22T11:51:05.946Z,28.1
2023-05-22T11:52:06.010Z,28.1
2023-05-22T11:53:05.979Z,28.2
2023-05-22T11:54:05.801Z,28.1
2023-05-22T11:55:05.849Z,28.2
2023-05-22T11:56:05.973Z,28.2
2023-05-22T11:57:05.887Z,28.2
2023-05-22T11:58:05.903Z,28.2
2023-05-22T11:59:05.644Z,28.2
2023-05-22T12:00:05.947Z,28.2
2023-05-22T12:01:05.819Z,28.1
2023-05-22T12:02:05.774Z,28.2
2023-05-22T12:03:05.870Z,28.1
2023-05-22T12:04:06.066Z,28.1
2023-05-22T12:05:05.854Z,28.1
2023-05-22T12:06:05.967Z,28.2
2023-05-22T12:07:05.625Z,28.2
2023-05-22T12:08:05.787Z,28.2
2023-05-22T12:09:06.357Z,28.2
2023-05-22T12:10:05.652Z,28.2
2023-05-22T12:11:05.872Z,28.1
2023-05-22T12:12:05.814Z,28.1
2023-05-22T12:13:06.832Z,28.1
2023-05-22T12:14:05.618Z,28
2023-05-22T12:15:05.817Z,28
2023-05-22T12:16:05.951Z,28
2023-05-22T12:17:06.773Z,28
2023-05-22T12:18:05.743Z,30
2023-05-22T12:19:05.550Z,27.9
2023-05-22T12:20:06.871Z,28
2023-05-22T12:21:05.572Z,28
2023-05-22T12:22:06.416Z,28
2023-05-22T12:23:06.699Z,28
2023-05-22T12:24:06.623Z,27.9
2023-05-22T12:25:06.674Z,28
2023-05-22T12:26:06.743Z,28
2023-05-22T12:27:06.572Z,28
2023-05-22T12:28:06.323Z,28.1
2023-05-22T12:29:06.558Z,28.1
2023-05-22T12:30:06.570Z,28.1
2023-05-22T12:31:06.558Z,28.1
2023-05-22T12:32:06.545Z,28.1
2023-05-22T12:33:06.640Z,28.1
2023-05-22T12:34:06.537Z,28
2023-05-22T12:35:06.658Z,28
2023-05-22T12:36:06.854Z,28
2023-05-22T12:37:06.673Z,28
2023-05-22T12:38:06.610Z,28.1
2023-05-22T12:39:06.685Z,28.1
2023-05-22T12:40:06.429Z,28.1
2023-05-22T12:41:05.771Z,28.1
2023-05-22T12:42:06.304Z,28.1
2023-05-22T12:43:06.404Z,28.1
2023-05-22T12:44:06.461Z,28
2023-05-22T12:45:06.250Z,28
2023-05-22T12:46:05.752Z,28
2023-05-22T12:47:06.541Z,28
2023-05-22T12:48:06.402Z,28
2023-05-22T12:49:06.307Z,28.1
2023-05-22T12:50:06.256Z,28.1
2023-05-22T12:51:06.338Z,28.1
2023-05-22T12:52:06.296Z,28.1
2023-05-22T12:53:06.333Z,28.2
2023-05-22T12:54:06.421Z,28.2
2023-05-22T12:55:06.686Z,28.2
2023-05-22T12:56:06.805Z,28.2
2023-05-22T12:57:06.584Z,28.2
2023-05-22T12:58:06.615Z,28.2
2023-05-22T12:59:06.625Z,28.2
2023-05-22T13:00:06.662Z,28.3
2023-05-22T13:01:06.665Z,28.2
2023-05-22T13:02:06.678Z,31
2023-05-22T13:03:06.837Z,28.3
2023-05-22T13:04:06.691Z,28.3
2023-05-22T13:05:06.605Z,28.4
2023-05-22T13:06:06.532Z,28.4
2023-05-22T13:07:06.528Z,28.3
2023-05-22T13:08:06.685Z,28.4
2023-05-22T13:09:06.480Z,28.4
2023-05-22T13:10:06.399Z,28.4
2023-05-22T13:11:06.616Z,28.4
2023-05-22T13:12:06.459Z,28.4
2023-05-22T13:13:06.311Z,32
2023-05-22T13:14:06.568Z,28.4
2023-05-22T13:15:06.455Z,28.5
2023-05-22T13:16:06.303Z,28.5
2023-05-22T13:17:06.563Z,28.5
2023-05-22T13:18:06.292Z,28.6
2023-05-22T13:19:06.403Z,28.6
2023-05-22T13:20:06.394Z,28.6
2023-05-22T13:21:06.393Z,28.7
2023-05-22T13:22:06.474Z,28.7
2023-05-22T13:23:06.304Z,28.7
2023-05-22T13:24:06.258Z,28.6
2023-05-22T13:25:06.473Z,28.6
2023-05-22T13:26:06.276Z,28.6
2023-05-22T13:27:06.505Z,28.5
2023-05-22T13:28:06.288Z,28.5
2023-05-22T13:29:06.252Z,28.5
2023-05-22T13:30:06.135Z,28.5